sensor_id;sensor_type;location;lat;lon;timestamp;temperature;humidity
38436;DHT22;24220;48.168;14.024;2022-10-04T00:06:54;14.00;77.80
38436;DHT22;24220;48.168;14.024;2022-10-04T00:09:26;14.00;78.20
38436;DHT22;24220;48.168;14.024;2022-10-04T00:11:56;14.00;78.30
38436;DHT22;24220;48.168;14.024;2022-10-04T00:14:35;13.90;78.50
38436;DHT22;24220;48.168;14.024;2022-10-04T00:17:17;13.90;78.30
38436;DHT22;24220;48.168;14.024;2022-10-04T00:19:50;13.90;78.40
38436;DHT22;24220;48.168;14.024;2022-10-04T00:22:29;13.80;79.60
38436;DHT22;24220;48.168;14.024;2022-10-04T00:27:37;13.70;78.70
38436;DHT22;24220;48.168;14.024;2022-10-04T00:30:24;13.70;79.30
38436;DHT22;24220;48.168;14.024;2022-10-04T00:33:02;13.70;79.10
38436;DHT22;24220;48.168;14.024;2022-10-04T00:35:44;13.60;79.30
38436;DHT22;24220;48.168;14.024;2022-10-04T00:38:16;13.60;79.90
38436;DHT22;24220;48.168;14.024;2022-10-04T00:41:03;13.60;79.80
38436;DHT22;24220;48.168;14.024;2022-10-04T00:43:36;13.60;79.60
38436;DHT22;24220;48.168;14.024;2022-10-04T00:46:17;13.50;79.80
38436;DHT22;24220;48.168;14.024;2022-10-04T00:48:52;13.60;79.50
38436;DHT22;24220;48.168;14.024;2022-10-04T00:52:02;13.50;79.70
38436;DHT22;24220;48.168;14.024;2022-10-04T00:54:40;13.50;79.60
38436;DHT22;24220;48.168;14.024;2022-10-04T00:57:14;13.50;79.40
38436;DHT22;24220;48.168;14.024;2022-10-04T00:59:55;13.50;79.80
38436;DHT22;24220;48.168;14.024;2022-10-04T01:07:51;13.30;79.60
38436;DHT22;24220;48.168;14.024;2022-10-04T01:10:31;13.30;79.80
38436;DHT22;24220;48.168;14.024;2022-10-04T01:18:13;13.20;79.70
38436;DHT22;24220;48.168;14.024;2022-10-04T01:29:22;13.10;79.40
38436;DHT22;24220;48.168;14.024;2022-10-04T01:31:53;13.00;79.30
38436;DHT22;24220;48.168;14.024;2022-10-04T01:34:23;13.00;79.80
38436;DHT22;24220;48.168;14.024;2022-10-04T01:36:53;13.00;79.90
38436;DHT22;24220;48.168;14.024;2022-10-04T01:39:22;12.90;80.00
38436;DHT22;24220;48.168;14.024;2022-10-04T01:47:02;12.90;80.00
38436;DHT22;24220;48.168;14.024;2022-10-04T01:49:33;12.80;80.00
38436;DHT22;24220;48.168;14.024;2022-10-04T01:54:41;12.80;80.10
38436;DHT22;24220;48.168;14.024;2022-10-04T01:57:22;12.80;80.30
38436;DHT22;24220;48.168;14.024;2022-10-04T01:59:56;12.70;79.50
38436;DHT22;24220;48.168;14.024;2022-10-04T02:04:58;12.70;79.70
38436;DHT22;24220;48.168;14.024;2022-10-04T02:07:30;12.70;79.90
38436;DHT22;24220;48.168;14.024;2022-10-04T02:10:02;12.60;79.80
38436;DHT22;24220;48.168;14.024;2022-10-04T02:12:31;12.60;79.90
38436;DHT22;24220;48.168;14.024;2022-10-04T02:15:02;12.60;80.10
38436;DHT22;24220;48.168;14.024;2022-10-04T02:17:38;12.50;80.00
38436;DHT22;24220;48.168;14.024;2022-10-04T02:20:19;12.50;79.80
38436;DHT22;24220;48.168;14.024;2022-10-04T02:22:54;12.50;79.90
38436;DHT22;24220;48.168;14.024;2022-10-04T02:25:22;12.50;80.10
38436;DHT22;24220;48.168;14.024;2022-10-04T02:27:51;12.50;80.10
38436;DHT22;24220;48.168;14.024;2022-10-04T02:30:20;12.40;80.00
38436;DHT22;24220;48.168;14.024;2022-10-04T02:32:52;12.40;80.20
38436;DHT22;24220;48.168;14.024;2022-10-04T02:35:42;12.40;80.00
38436;DHT22;24220;48.168;14.024;2022-10-04T02:38:20;12.40;80.00
38436;DHT22;24220;48.168;14.024;2022-10-04T02:43:31;12.30;79.90
38436;DHT22;24220;48.168;14.024;2022-10-04T02:46:12;12.30;80.00
38436;DHT22;24220;48.168;14.024;2022-10-04T02:48:46;12.30;79.90
38436;DHT22;24220;48.168;14.024;2022-10-04T02:56:55;12.30;80.00
38436;DHT22;24220;48.168;14.024;2022-10-04T02:59:25;12.20;80.10
38436;DHT22;24220;48.168;14.024;2022-10-04T03:01:56;12.20;80.20
38436;DHT22;24220;48.168;14.024;2022-10-04T03:04:31;12.20;80.30
38436;DHT22;24220;48.168;14.024;2022-10-04T03:07:07;12.10;80.30
38436;DHT22;24220;48.168;14.024;2022-10-04T03:09:38;12.10;80.30
38436;DHT22;24220;48.168;14.024;2022-10-04T03:12:09;12.10;80.40
38436;DHT22;24220;48.168;14.024;2022-10-04T03:14:38;12.10;80.50
38436;DHT22;24220;48.168;14.024;2022-10-04T03:17:06;12.10;80.60
38436;DHT22;24220;48.168;14.024;2022-10-04T03:19:36;12.00;80.60
38436;DHT22;24220;48.168;14.024;2022-10-04T03:22:13;12.00;80.60
38436;DHT22;24220;48.168;14.024;2022-10-04T03:27:19;12.00;80.60
38436;DHT22;24220;48.168;14.024;2022-10-04T03:29:52;12.00;80.60
38436;DHT22;24220;48.168;14.024;2022-10-04T03:32:28;12.00;80.80
38436;DHT22;24220;48.168;14.024;2022-10-04T03:34:57;12.00;80.80
38436;DHT22;24220;48.168;14.024;2022-10-04T03:37:27;12.00;80.90
38436;DHT22;24220;48.168;14.024;2022-10-04T03:39:56;11.90;81.00
38436;DHT22;24220;48.168;14.024;2022-10-04T03:42:28;11.90;81.10
38436;DHT22;24220;48.168;14.024;2022-10-04T03:45:02;11.90;81.30
38436;DHT22;24220;48.168;14.024;2022-10-04T03:47:34;11.90;81.30
38436;DHT22;24220;48.168;14.024;2022-10-04T03:52:43;11.80;81.30
38436;DHT22;24220;48.168;14.024;2022-10-04T03:55:14;11.80;81.50
38436;DHT22;24220;48.168;14.024;2022-10-04T03:57:44;11.80;81.40
38436;DHT22;24220;48.168;14.024;2022-10-04T04:00:17;11.80;81.50
38436;DHT22;24220;48.168;14.024;2022-10-04T04:02:51;11.80;81.40
38436;DHT22;24220;48.168;14.024;2022-10-04T04:08:11;11.80;81.50
38436;DHT22;24220;48.168;14.024;2022-10-04T04:10:47;11.70;81.30
38436;DHT22;24220;48.168;14.024;2022-10-04T04:16:05;11.70;81.10
38436;DHT22;24220;48.168;14.024;2022-10-04T04:18:34;11.70;81.70
38436;DHT22;24220;48.168;14.024;2022-10-04T04:21:06;11.70;81.70
38436;DHT22;24220;48.168;14.024;2022-10-04T04:23:40;11.70;81.80
38436;DHT22;24220;48.168;14.024;2022-10-04T04:29:01;11.70;81.70
38436;DHT22;24220;48.168;14.024;2022-10-04T04:34:21;11.60;81.80
38436;DHT22;24220;48.168;14.024;2022-10-04T04:36:50;11.60;81.60
38436;DHT22;24220;48.168;14.024;2022-10-04T04:39:28;11.60;81.80
38436;DHT22;24220;48.168;14.024;2022-10-04T04:42:30;11.60;81.90
38436;DHT22;24220;48.168;14.024;2022-10-04T04:45:04;11.60;81.50
38436;DHT22;24220;48.168;14.024;2022-10-04T04:47:45;11.60;81.90
38436;DHT22;24220;48.168;14.024;2022-10-04T04:52:47;11.50;81.90
38436;DHT22;24220;48.168;14.024;2022-10-04T04:55:25;11.60;81.90
38436;DHT22;24220;48.168;14.024;2022-10-04T04:58:24;11.60;81.90
38436;DHT22;24220;48.168;14.024;2022-10-04T05:03:29;11.50;81.90
38436;DHT22;24220;48.168;14.024;2022-10-04T05:05:57;11.50;82.10
38436;DHT22;24220;48.168;14.024;2022-10-04T05:08:29;11.50;82.10
38436;DHT22;24220;48.168;14.024;2022-10-04T05:13:33;11.50;82.10
38436;DHT22;24220;48.168;14.024;2022-10-04T05:16:18;11.40;81.90
38436;DHT22;24220;48.168;14.024;2022-10-04T05:18:47;11.40;82.20
38436;DHT22;24220;48.168;14.024;2022-10-04T05:21:24;11.40;82.60
38436;DHT22;24220;48.168;14.024;2022-10-04T05:23:54;11.40;82.70
38436;DHT22;24220;48.168;14.024;2022-10-04T05:26:30;11.40;83.10
38436;DHT22;24220;48.168;14.024;2022-10-04T05:29:10;11.40;83.60
38436;DHT22;24220;48.168;14.024;2022-10-04T05:31:46;11.40;83.00
38436;DHT22;24220;48.168;14.024;2022-10-04T05:34:28;11.40;83.60
38436;DHT22;24220;48.168;14.024;2022-10-04T05:39:49;11.40;83.50
38436;DHT22;24220;48.168;14.024;2022-10-04T05:44:57;11.50;84.00
38436;DHT22;24220;48.168;14.024;2022-10-04T05:47:29;11.50;84.10
38436;DHT22;24220;48.168;14.024;2022-10-04T05:49:57;11.60;84.20
38436;DHT22;24220;48.168;14.024;2022-10-04T05:52:33;11.60;85.20
38436;DHT22;24220;48.168;14.024;2022-10-04T05:55:27;11.60;84.10
38436;DHT22;24220;48.168;14.024;2022-10-04T06:00:44;11.60;84.00
38436;DHT22;24220;48.168;14.024;2022-10-04T06:22:21;11.90;85.70
38436;DHT22;24220;48.168;14.024;2022-10-04T06:30:15;12.10;85.50
38436;DHT22;24220;48.168;14.024;2022-10-04T06:38:41;12.20;84.30
38436;DHT22;24220;48.168;14.024;2022-10-04T06:44:32;12.20;84.90
38436;DHT22;24220;48.168;14.024;2022-10-04T06:47:25;12.20;83.90
38436;DHT22;24220;48.168;14.024;2022-10-04T06:50:03;12.20;84.20
38436;DHT22;24220;48.168;14.024;2022-10-04T07:00:55;12.40;85.20
38436;DHT22;24220;48.168;14.024;2022-10-04T07:03:36;12.40;85.30
38436;DHT22;24220;48.168;14.024;2022-10-04T07:06:07;12.50;84.90
38436;DHT22;24220;48.168;14.024;2022-10-04T07:08:50;12.60;85.70
38436;DHT22;24220;48.168;14.024;2022-10-04T07:24:28;13.00;85.40
38436;DHT22;24220;48.168;14.024;2022-10-04T07:27:02;13.10;85.40
38436;DHT22;24220;48.168;14.024;2022-10-04T07:29:34;13.20;85.30
38436;DHT22;24220;48.168;14.024;2022-10-04T07:32:22;13.30;85.10
38436;DHT22;24220;48.168;14.024;2022-10-04T07:37:43;13.50;85.10
38436;DHT22;24220;48.168;14.024;2022-10-04T07:40:21;13.50;85.60
38436;DHT22;24220;48.168;14.024;2022-10-04T07:42:57;13.70;85.30
38436;DHT22;24220;48.168;14.024;2022-10-04T07:45:35;13.70;85.10
38436;DHT22;24220;48.168;14.024;2022-10-04T07:48:15;13.80;85.20
38436;DHT22;24220;48.168;14.024;2022-10-04T07:51:35;13.90;85.60
38436;DHT22;24220;48.168;14.024;2022-10-04T07:54:21;14.00;84.60
38436;DHT22;24220;48.168;14.024;2022-10-04T07:56:55;14.20;84.40
38436;DHT22;24220;48.168;14.024;2022-10-04T07:59:35;14.30;85.40
38436;DHT22;24220;48.168;14.024;2022-10-04T08:21:46;15.00;82.90
38436;DHT22;24220;48.168;14.024;2022-10-04T08:31:10;15.20;82.80
38436;DHT22;24220;48.168;14.024;2022-10-04T08:50:37;15.80;82.70
38436;DHT22;24220;48.168;14.024;2022-10-04T08:59:01;16.20;81.80
38436;DHT22;24220;48.168;14.024;2022-10-04T09:13:31;16.90;80.20
38436;DHT22;24220;48.168;14.024;2022-10-04T09:19:18;17.20;80.60
38436;DHT22;24220;48.168;14.024;2022-10-04T09:22:08;17.30;80.80
38436;DHT22;24220;48.168;14.024;2022-10-04T09:31:01;17.60;76.30
38436;DHT22;24220;48.168;14.024;2022-10-04T09:34:09;17.70;76.80
38436;DHT22;24220;48.168;14.024;2022-10-04T09:50:59;18.70;75.60
38436;DHT22;24220;48.168;14.024;2022-10-04T10:11:02;21.30;71.90
38436;DHT22;24220;48.168;14.024;2022-10-04T10:33:35;24.20;61.80
38436;DHT22;24220;48.168;14.024;2022-10-04T10:36:23;24.30;61.30
38436;DHT22;24220;48.168;14.024;2022-10-04T10:47:02;24.60;61.00
38436;DHT22;24220;48.168;14.024;2022-10-04T10:49:54;24.60;58.90
38436;DHT22;24220;48.168;14.024;2022-10-04T10:52:52;24.60;60.00
38436;DHT22;24220;48.168;14.024;2022-10-04T11:03:47;24.50;56.00
38436;DHT22;24220;48.168;14.024;2022-10-04T11:26:28;23.90;55.90
38436;DHT22;24220;48.168;14.024;2022-10-04T11:29:17;23.80;56.00
38436;DHT22;24220;48.168;14.024;2022-10-04T11:46:18;23.90;56.20
38436;DHT22;24220;48.168;14.024;2022-10-04T11:57:23;24.10;54.90
38436;DHT22;24220;48.168;14.024;2022-10-04T12:00:09;24.30;56.90
38436;DHT22;24220;48.168;14.024;2022-10-04T12:08:19;25.00;53.30
38436;DHT22;24220;48.168;14.024;2022-10-04T12:36:38;30.70;46.60
38436;DHT22;24220;48.168;14.024;2022-10-04T12:39:43;31.30;46.60
38436;DHT22;24220;48.168;14.024;2022-10-04T12:53:51;33.50;42.70
38436;DHT22;24220;48.168;14.024;2022-10-04T12:59:05;34.20;40.60
38436;DHT22;24220;48.168;14.024;2022-10-04T13:04:34;34.40;42.00
38436;DHT22;24220;48.168;14.024;2022-10-04T13:09:56;33.70;38.10
38436;DHT22;24220;48.168;14.024;2022-10-04T13:21:46;30.10;38.20
38436;DHT22;24220;48.168;14.024;2022-10-04T13:33:28;27.00;40.40
38436;DHT22;24220;48.168;14.024;2022-10-04T13:36:17;26.40;40.80
38436;DHT22;24220;48.168;14.024;2022-10-04T13:38:54;25.80;41.60
38436;DHT22;24220;48.168;14.024;2022-10-04T13:47:09;24.50;44.10
38436;DHT22;24220;48.168;14.024;2022-10-04T13:52:41;23.70;43.90
38436;DHT22;24220;48.168;14.024;2022-10-04T13:55:52;23.40;45.30
38436;DHT22;24220;48.168;14.024;2022-10-04T14:18:25;21.80;48.00
38436;DHT22;24220;48.168;14.024;2022-10-04T14:24:39;21.50;47.30
38436;DHT22;24220;48.168;14.024;2022-10-04T14:30:21;21.20;46.70
38436;DHT22;24220;48.168;14.024;2022-10-04T14:40:48;20.90;46.30
38436;DHT22;24220;48.168;14.024;2022-10-04T15:03:30;20.40;49.20
38436;DHT22;24220;48.168;14.024;2022-10-04T15:06:11;20.40;48.40
38436;DHT22;24220;48.168;14.024;2022-10-04T15:11:39;20.30;47.20
38436;DHT22;24220;48.168;14.024;2022-10-04T15:14:32;20.20;48.40
38436;DHT22;24220;48.168;14.024;2022-10-04T15:17:29;20.20;48.00
38436;DHT22;24220;48.168;14.024;2022-10-04T15:22:53;20.10;47.50
38436;DHT22;24220;48.168;14.024;2022-10-04T15:28:31;20.00;47.40
38436;DHT22;24220;48.168;14.024;2022-10-04T15:42:22;19.80;49.00
38436;DHT22;24220;48.168;14.024;2022-10-04T15:54:02;19.70;51.70
38436;DHT22;24220;48.168;14.024;2022-10-04T15:56:57;19.60;53.40
38436;DHT22;24220;48.168;14.024;2022-10-04T16:02:24;19.50;51.30
38436;DHT22;24220;48.168;14.024;2022-10-04T16:10:27;19.30;52.20
38436;DHT22;24220;48.168;14.024;2022-10-04T16:29:38;18.90;53.50
38436;DHT22;24220;48.168;14.024;2022-10-04T16:35:59;18.70;53.90
38436;DHT22;24220;48.168;14.024;2022-10-04T16:38:33;18.70;54.20
38436;DHT22;24220;48.168;14.024;2022-10-04T16:41:13;18.60;54.30
38436;DHT22;24220;48.168;14.024;2022-10-04T16:43:53;18.50;54.80
38436;DHT22;24220;48.168;14.024;2022-10-04T16:46:45;18.50;55.10
38436;DHT22;24220;48.168;14.024;2022-10-04T16:49:21;18.40;55.00
38436;DHT22;24220;48.168;14.024;2022-10-04T16:57:20;18.30;56.00
38436;DHT22;24220;48.168;14.024;2022-10-04T16:59:59;18.20;56.10
38436;DHT22;24220;48.168;14.024;2022-10-04T17:05:44;18.00;56.30
38436;DHT22;24220;48.168;14.024;2022-10-04T17:08:24;18.00;56.60
38436;DHT22;24220;48.168;14.024;2022-10-04T17:11:29;17.90;56.70
38436;DHT22;24220;48.168;14.024;2022-10-04T17:14:42;17.80;56.90
38436;DHT22;24220;48.168;14.024;2022-10-04T17:19:57;17.70;57.50
38436;DHT22;24220;48.168;14.024;2022-10-04T17:22:53;17.70;57.80
38436;DHT22;24220;48.168;14.024;2022-10-04T17:28:00;17.60;58.00
38436;DHT22;24220;48.168;14.024;2022-10-04T17:36:41;17.40;58.40
38436;DHT22;24220;48.168;14.024;2022-10-04T17:39:47;17.40;58.50
38436;DHT22;24220;48.168;14.024;2022-10-04T17:48:12;17.30;58.80
38436;DHT22;24220;48.168;14.024;2022-10-04T17:53:50;17.20;59.20
38436;DHT22;24220;48.168;14.024;2022-10-04T17:56:46;17.10;59.20
38436;DHT22;24220;48.168;14.024;2022-10-04T17:59:27;17.10;59.00
38436;DHT22;24220;48.168;14.024;2022-10-04T18:05:11;17.00;59.50
38436;DHT22;24220;48.168;14.024;2022-10-04T18:07:45;16.90;59.50
38436;DHT22;24220;48.168;14.024;2022-10-04T18:13:10;16.80;59.80
38436;DHT22;24220;48.168;14.024;2022-10-04T18:23:57;16.70;60.30
38436;DHT22;24220;48.168;14.024;2022-10-04T18:26:28;16.70;60.40
38436;DHT22;24220;48.168;14.024;2022-10-04T18:28:58;16.60;60.30
38436;DHT22;24220;48.168;14.024;2022-10-04T18:31:38;16.60;60.70
38436;DHT22;24220;48.168;14.024;2022-10-04T18:34:27;16.50;60.90
38436;DHT22;24220;48.168;14.024;2022-10-04T18:39:46;16.50;61.00
38436;DHT22;24220;48.168;14.024;2022-10-04T18:42:28;16.40;61.30
38436;DHT22;24220;48.168;14.024;2022-10-04T18:47:50;16.30;62.00
38436;DHT22;24220;48.168;14.024;2022-10-04T18:50:34;16.30;61.50
38436;DHT22;24220;48.168;14.024;2022-10-04T18:56:06;16.30;62.00
38436;DHT22;24220;48.168;14.024;2022-10-04T19:02:08;16.20;62.10
38436;DHT22;24220;48.168;14.024;2022-10-04T19:15:48;16.00;62.80
38436;DHT22;24220;48.168;14.024;2022-10-04T19:27:14;15.80;63.40
38436;DHT22;24220;48.168;14.024;2022-10-04T19:30:00;15.80;63.30
38436;DHT22;24220;48.168;14.024;2022-10-04T19:32:41;15.80;63.60
38436;DHT22;24220;48.168;14.024;2022-10-04T19:38:24;15.70;63.60
38436;DHT22;24220;48.168;14.024;2022-10-04T19:41:07;15.70;63.50
38436;DHT22;24220;48.168;14.024;2022-10-04T19:48:50;15.60;63.90
38436;DHT22;24220;48.168;14.024;2022-10-04T19:51:29;15.50;64.00
38436;DHT22;24220;48.168;14.024;2022-10-04T19:54:10;15.50;64.30
38436;DHT22;24220;48.168;14.024;2022-10-04T19:56:48;15.50;64.50
38436;DHT22;24220;48.168;14.024;2022-10-04T19:59:37;15.50;64.50
38436;DHT22;24220;48.168;14.024;2022-10-04T20:02:10;15.40;64.70
38436;DHT22;24220;48.168;14.024;2022-10-04T20:04:40;15.40;64.60
38436;DHT22;24220;48.168;14.024;2022-10-04T20:07:26;15.40;64.50
38436;DHT22;24220;48.168;14.024;2022-10-04T20:26:10;15.20;65.30
38436;DHT22;24220;48.168;14.024;2022-10-04T20:28:40;15.10;65.10
38436;DHT22;24220;48.168;14.024;2022-10-04T20:34:29;15.10;65.40
38436;DHT22;24220;48.168;14.024;2022-10-04T20:36:57;15.00;65.50
38436;DHT22;24220;48.168;14.024;2022-10-04T20:42:25;15.00;65.90
38436;DHT22;24220;48.168;14.024;2022-10-04T20:50:13;14.90;65.90
38436;DHT22;24220;48.168;14.024;2022-10-04T20:53:11;14.90;65.80
38436;DHT22;24220;48.168;14.024;2022-10-04T20:55:40;14.80;66.00
38436;DHT22;24220;48.168;14.024;2022-10-04T20:58:31;14.80;65.80
38436;DHT22;24220;48.168;14.024;2022-10-04T21:01:04;14.80;65.90
38436;DHT22;24220;48.168;14.024;2022-10-04T21:03:42;14.80;65.80
38436;DHT22;24220;48.168;14.024;2022-10-04T21:06:12;14.80;65.80
38436;DHT22;24220;48.168;14.024;2022-10-04T21:08:42;14.80;65.60
38436;DHT22;24220;48.168;14.024;2022-10-04T21:11:19;14.70;65.60
38436;DHT22;24220;48.168;14.024;2022-10-04T21:13:54;14.70;65.80
38436;DHT22;24220;48.168;14.024;2022-10-04T21:16:37;14.60;65.70
38436;DHT22;24220;48.168;14.024;2022-10-04T21:27:37;14.50;65.90
38436;DHT22;24220;48.168;14.024;2022-10-04T21:30:26;14.50;66.40
38436;DHT22;24220;48.168;14.024;2022-10-04T21:32:53;14.40;66.40
38436;DHT22;24220;48.168;14.024;2022-10-04T21:35:20;14.40;66.00
38436;DHT22;24220;48.168;14.024;2022-10-04T21:37:47;14.30;66.00
38436;DHT22;24220;48.168;14.024;2022-10-04T21:40:15;14.30;66.20
38436;DHT22;24220;48.168;14.024;2022-10-04T21:42:45;14.30;66.40
38436;DHT22;24220;48.168;14.024;2022-10-04T21:45:14;14.30;66.60
38436;DHT22;24220;48.168;14.024;2022-10-04T21:47:42;14.20;66.60
38436;DHT22;24220;48.168;14.024;2022-10-04T21:50:11;14.20;66.70
38436;DHT22;24220;48.168;14.024;2022-10-04T21:52:41;14.20;66.60
38436;DHT22;24220;48.168;14.024;2022-10-04T21:55:13;14.20;66.40
38436;DHT22;24220;48.168;14.024;2022-10-04T21:57:41;14.10;66.50
38436;DHT22;24220;48.168;14.024;2022-10-04T22:00:11;14.10;66.60
38436;DHT22;24220;48.168;14.024;2022-10-04T22:02:38;14.10;66.70
38436;DHT22;24220;48.168;14.024;2022-10-04T22:05:08;14.10;66.70
38436;DHT22;24220;48.168;14.024;2022-10-04T22:07:35;14.00;66.80
38436;DHT22;24220;48.168;14.024;2022-10-04T22:10:03;14.00;66.80
38436;DHT22;24220;48.168;14.024;2022-10-04T22:12:37;14.00;67.00
38436;DHT22;24220;48.168;14.024;2022-10-04T22:15:07;14.00;67.00
38436;DHT22;24220;48.168;14.024;2022-10-04T22:17:37;14.00;67.00
38436;DHT22;24220;48.168;14.024;2022-10-04T22:20:07;14.00;66.80
38436;DHT22;24220;48.168;14.024;2022-10-04T22:22:34;13.90;66.90
38436;DHT22;24220;48.168;14.024;2022-10-04T22:25:17;13.90;67.10
38436;DHT22;24220;48.168;14.024;2022-10-04T22:27:48;13.90;67.50
38436;DHT22;24220;48.168;14.024;2022-10-04T22:30:27;13.80;67.30
38436;DHT22;24220;48.168;14.024;2022-10-04T22:32:59;13.80;67.60
38436;DHT22;24220;48.168;14.024;2022-10-04T22:35:30;13.80;67.50
38436;DHT22;24220;48.168;14.024;2022-10-04T22:38:06;13.80;67.50
38436;DHT22;24220;48.168;14.024;2022-10-04T22:40:35;13.80;67.60
38436;DHT22;24220;48.168;14.024;2022-10-04T22:43:02;13.70;68.20
38436;DHT22;24220;48.168;14.024;2022-10-04T22:45:30;13.70;67.70
38436;DHT22;24220;48.168;14.024;2022-10-04T22:48:09;13.70;67.80
38436;DHT22;24220;48.168;14.024;2022-10-04T22:50:37;13.70;67.90
38436;DHT22;24220;48.168;14.024;2022-10-04T22:53:16;13.70;67.80
38436;DHT22;24220;48.168;14.024;2022-10-04T22:55:50;13.60;67.90
38436;DHT22;24220;48.168;14.024;2022-10-04T22:58:17;13.60;67.70
38436;DHT22;24220;48.168;14.024;2022-10-04T23:00:49;13.60;67.90
38436;DHT22;24220;48.168;14.024;2022-10-04T23:03:29;13.60;68.00
38436;DHT22;24220;48.168;14.024;2022-10-04T23:06:01;13.50;68.00
38436;DHT22;24220;48.168;14.024;2022-10-04T23:08:29;13.50;67.80
38436;DHT22;24220;48.168;14.024;2022-10-04T23:10:58;13.50;67.90
38436;DHT22;24220;48.168;14.024;2022-10-04T23:13:28;13.50;68.10
38436;DHT22;24220;48.168;14.024;2022-10-04T23:16:08;13.40;68.00
38436;DHT22;24220;48.168;14.024;2022-10-04T23:18:36;13.40;68.10
38436;DHT22;24220;48.168;14.024;2022-10-04T23:21:22;13.40;68.00
38436;DHT22;24220;48.168;14.024;2022-10-04T23:23:51;13.30;68.10
38436;DHT22;24220;48.168;14.024;2022-10-04T23:26:26;13.30;68.00
38436;DHT22;24220;48.168;14.024;2022-10-04T23:28:57;13.30;68.00
38436;DHT22;24220;48.168;14.024;2022-10-04T23:31:25;13.30;67.90
38436;DHT22;24220;48.168;14.024;2022-10-04T23:33:57;13.20;67.80
38436;DHT22;24220;48.168;14.024;2022-10-04T23:36:25;13.20;67.90
38436;DHT22;24220;48.168;14.024;2022-10-04T23:38:55;13.20;67.80
38436;DHT22;24220;48.168;14.024;2022-10-04T23:41:27;13.20;67.90
38436;DHT22;24220;48.168;14.024;2022-10-04T23:43:55;13.20;67.80
38436;DHT22;24220;48.168;14.024;2022-10-04T23:46:22;13.10;67.80
38436;DHT22;24220;48.168;14.024;2022-10-04T23:48:52;13.10;67.90
38436;DHT22;24220;48.168;14.024;2022-10-04T23:51:22;13.10;68.00
38436;DHT22;24220;48.168;14.024;2022-10-04T23:53:49;13.10;68.10
38436;DHT22;24220;48.168;14.024;2022-10-04T23:56:24;13.00;67.90
38436;DHT22;24220;48.168;14.024;2022-10-04T23:58:55;13.00;68.10
